sensor_id;sensor_type;location;lat;lon;timestamp;temperature;humidity
27671;DHT22;15077;49.704;9.908;2022-12-29T00:02:14;11.40;64.50
27671;DHT22;15077;49.704;9.908;2022-12-29T00:04:40;11.40;64.50
27671;DHT22;15077;49.704;9.908;2022-12-29T00:07:07;11.40;64.50
27671;DHT22;15077;49.704;9.908;2022-12-29T00:09:33;11.40;64.50
27671;DHT22;15077;49.704;9.908;2022-12-29T00:12:01;11.40;64.50
27671;DHT22;15077;49.704;9.908;2022-12-29T00:14:27;11.40;64.40
27671;DHT22;15077;49.704;9.908;2022-12-29T00:17:12;11.30;64.50
27671;DHT22;15077;49.704;9.908;2022-12-29T00:19:38;11.30;64.60
27671;DHT22;15077;49.704;9.908;2022-12-29T00:22:23;11.30;64.60
27671;DHT22;15077;49.704;9.908;2022-12-29T00:25:10;11.30;64.60
27671;DHT22;15077;49.704;9.908;2022-12-29T00:27:56;11.30;64.60
27671;DHT22;15077;49.704;9.908;2022-12-29T00:30:41;11.30;64.80
27671;DHT22;15077;49.704;9.908;2022-12-29T00:33:29;11.30;64.70
27671;DHT22;15077;49.704;9.908;2022-12-29T00:36:35;11.30;64.70
27671;DHT22;15077;49.704;9.908;2022-12-29T00:39:09;11.30;64.70
27671;DHT22;15077;49.704;9.908;2022-12-29T00:41:56;11.30;64.70
27671;DHT22;15077;49.704;9.908;2022-12-29T00:45:03;11.30;64.70
27671;DHT22;15077;49.704;9.908;2022-12-29T00:47:29;11.30;64.70
27671;DHT22;15077;49.704;9.908;2022-12-29T00:49:55;11.40;64.80
27671;DHT22;15077;49.704;9.908;2022-12-29T00:52:21;11.30;64.80
27671;DHT22;15077;49.704;9.908;2022-12-29T00:54:46;11.30;64.80
27671;DHT22;15077;49.704;9.908;2022-12-29T00:57:12;11.40;64.80
27671;DHT22;15077;49.704;9.908;2022-12-29T00:59:40;11.40;64.90
27671;DHT22;15077;49.704;9.908;2022-12-29T01:02:10;11.40;64.80
27671;DHT22;15077;49.704;9.908;2022-12-29T01:04:38;11.40;64.90
27671;DHT22;15077;49.704;9.908;2022-12-29T01:07:05;11.40;65.00
27671;DHT22;15077;49.704;9.908;2022-12-29T01:09:31;11.40;65.00
27671;DHT22;15077;49.704;9.908;2022-12-29T01:12:16;11.40;64.90
27671;DHT22;15077;49.704;9.908;2022-12-29T01:14:42;11.40;65.00
27671;DHT22;15077;49.704;9.908;2022-12-29T01:17:09;11.40;65.00
27671;DHT22;15077;49.704;9.908;2022-12-29T01:19:36;11.40;65.00
27671;DHT22;15077;49.704;9.908;2022-12-29T01:22:02;11.40;65.00
27671;DHT22;15077;49.704;9.908;2022-12-29T01:24:28;11.40;65.00
27671;DHT22;15077;49.704;9.908;2022-12-29T01:26:54;11.40;65.00
27671;DHT22;15077;49.704;9.908;2022-12-29T01:29:20;11.50;65.10
27671;DHT22;15077;49.704;9.908;2022-12-29T01:31:46;11.50;65.10
27671;DHT22;15077;49.704;9.908;2022-12-29T01:34:12;11.50;65.20
27671;DHT22;15077;49.704;9.908;2022-12-29T01:36:38;11.50;65.10
27671;DHT22;15077;49.704;9.908;2022-12-29T01:39:04;11.50;65.20
27671;DHT22;15077;49.704;9.908;2022-12-29T01:41:30;11.50;65.30
27671;DHT22;15077;49.704;9.908;2022-12-29T01:43:58;11.50;65.30
27671;DHT22;15077;49.704;9.908;2022-12-29T01:46:41;11.60;65.40
27671;DHT22;15077;49.704;9.908;2022-12-29T01:49:15;11.60;65.40
27671;DHT22;15077;49.704;9.908;2022-12-29T01:51:52;11.60;65.40
27671;DHT22;15077;49.704;9.908;2022-12-29T01:57:18;11.70;65.70
27671;DHT22;15077;49.704;9.908;2022-12-29T01:59:56;11.70;65.70
27671;DHT22;15077;49.704;9.908;2022-12-29T02:02:35;11.70;65.70
27671;DHT22;15077;49.704;9.908;2022-12-29T02:05:07;11.70;65.70
27671;DHT22;15077;49.704;9.908;2022-12-29T02:07:38;11.70;65.90
27671;DHT22;15077;49.704;9.908;2022-12-29T02:10:06;11.80;66.10
27671;DHT22;15077;49.704;9.908;2022-12-29T02:12:32;11.80;66.50
27671;DHT22;15077;49.704;9.908;2022-12-29T02:15:00;11.90;66.80
27671;DHT22;15077;49.704;9.908;2022-12-29T02:17:41;11.90;67.00
27671;DHT22;15077;49.704;9.908;2022-12-29T02:23:29;12.00;67.40
27671;DHT22;15077;49.704;9.908;2022-12-29T02:29:34;12.20;68.30
27671;DHT22;15077;49.704;9.908;2022-12-29T02:32:29;12.20;69.10
27671;DHT22;15077;49.704;9.908;2022-12-29T02:35:44;12.20;69.70
27671;DHT22;15077;49.704;9.908;2022-12-29T02:38:44;12.30;69.50
27671;DHT22;15077;49.704;9.908;2022-12-29T02:47:35;12.30;69.80
27671;DHT22;15077;49.704;9.908;2022-12-29T02:53:39;12.20;69.80
27671;DHT22;15077;49.704;9.908;2022-12-29T02:56:24;12.20;69.60
27671;DHT22;15077;49.704;9.908;2022-12-29T02:58:50;12.10;69.70
27671;DHT22;15077;49.704;9.908;2022-12-29T03:01:29;12.10;69.80
27671;DHT22;15077;49.704;9.908;2022-12-29T03:04:13;12.10;70.40
27671;DHT22;15077;49.704;9.908;2022-12-29T03:12:56;12.10;70.60
27671;DHT22;15077;49.704;9.908;2022-12-29T03:16:11;12.10;70.70
27671;DHT22;15077;49.704;9.908;2022-12-29T03:18:50;12.10;71.00
27671;DHT22;15077;49.704;9.908;2022-12-29T03:21:46;12.10;70.50
27671;DHT22;15077;49.704;9.908;2022-12-29T03:24:38;12.10;71.10
27671;DHT22;15077;49.704;9.908;2022-12-29T03:27:09;12.10;70.60
27671;DHT22;15077;49.704;9.908;2022-12-29T03:29:44;12.10;70.70
27671;DHT22;15077;49.704;9.908;2022-12-29T03:32:18;12.10;70.70
27671;DHT22;15077;49.704;9.908;2022-12-29T03:34:46;12.10;70.70
27671;DHT22;15077;49.704;9.908;2022-12-29T03:37:26;12.10;70.80
27671;DHT22;15077;49.704;9.908;2022-12-29T03:39:56;12.10;70.90
27671;DHT22;15077;49.704;9.908;2022-12-29T03:42:25;12.10;71.00
27671;DHT22;15077;49.704;9.908;2022-12-29T03:44:56;12.10;71.10
27671;DHT22;15077;49.704;9.908;2022-12-29T03:47:23;12.10;70.90
27671;DHT22;15077;49.704;9.908;2022-12-29T03:49:50;12.10;70.90
27671;DHT22;15077;49.704;9.908;2022-12-29T03:52:17;12.10;71.10
27671;DHT22;15077;49.704;9.908;2022-12-29T03:54:43;12.20;71.40
27671;DHT22;15077;49.704;9.908;2022-12-29T03:57:10;12.20;71.50
27671;DHT22;15077;49.704;9.908;2022-12-29T03:59:36;12.20;71.40
27671;DHT22;15077;49.704;9.908;2022-12-29T04:02:02;12.20;72.10
27671;DHT22;15077;49.704;9.908;2022-12-29T04:04:28;12.20;71.40
27671;DHT22;15077;49.704;9.908;2022-12-29T04:06:54;12.20;71.40
27671;DHT22;15077;49.704;9.908;2022-12-29T04:09:19;12.30;71.60
27671;DHT22;15077;49.704;9.908;2022-12-29T04:11:45;12.30;71.60
27671;DHT22;15077;49.704;9.908;2022-12-29T04:14:11;12.20;71.70
27671;DHT22;15077;49.704;9.908;2022-12-29T04:16:36;12.30;71.80
27671;DHT22;15077;49.704;9.908;2022-12-29T04:19:04;12.30;71.70
27671;DHT22;15077;49.704;9.908;2022-12-29T04:21:31;12.30;71.70
27671;DHT22;15077;49.704;9.908;2022-12-29T04:23:56;12.40;72.10
27671;DHT22;15077;49.704;9.908;2022-12-29T04:26:22;12.40;71.30
27671;DHT22;15077;49.704;9.908;2022-12-29T04:28:48;12.40;71.40
27671;DHT22;15077;49.704;9.908;2022-12-29T04:31:14;12.40;71.20
27671;DHT22;15077;49.704;9.908;2022-12-29T04:33:40;12.50;71.00
27671;DHT22;15077;49.704;9.908;2022-12-29T04:36:05;12.50;71.10
27671;DHT22;15077;49.704;9.908;2022-12-29T04:38:32;12.50;71.00
27671;DHT22;15077;49.704;9.908;2022-12-29T04:41:01;12.50;71.00
27671;DHT22;15077;49.704;9.908;2022-12-29T04:43:28;12.50;70.80
27671;DHT22;15077;49.704;9.908;2022-12-29T04:45:54;12.50;70.70
27671;DHT22;15077;49.704;9.908;2022-12-29T04:48:20;12.60;70.50
27671;DHT22;15077;49.704;9.908;2022-12-29T04:50:48;12.60;70.30
27671;DHT22;15077;49.704;9.908;2022-12-29T04:53:15;12.60;70.20
27671;DHT22;15077;49.704;9.908;2022-12-29T04:55:42;12.60;70.00
27671;DHT22;15077;49.704;9.908;2022-12-29T04:58:07;12.50;69.80
27671;DHT22;15077;49.704;9.908;2022-12-29T05:00:34;12.50;69.60
27671;DHT22;15077;49.704;9.908;2022-12-29T05:03:00;12.50;69.50
27671;DHT22;15077;49.704;9.908;2022-12-29T05:05:26;12.50;69.40
27671;DHT22;15077;49.704;9.908;2022-12-29T05:07:52;12.50;69.30
27671;DHT22;15077;49.704;9.908;2022-12-29T05:10:18;12.50;69.30
27671;DHT22;15077;49.704;9.908;2022-12-29T05:12:43;12.50;69.30
27671;DHT22;15077;49.704;9.908;2022-12-29T05:15:10;12.50;69.20
27671;DHT22;15077;49.704;9.908;2022-12-29T05:17:36;12.50;69.20
27671;DHT22;15077;49.704;9.908;2022-12-29T05:20:03;12.50;69.10
27671;DHT22;15077;49.704;9.908;2022-12-29T05:22:30;12.50;69.00
27671;DHT22;15077;49.704;9.908;2022-12-29T05:24:56;12.50;68.90
27671;DHT22;15077;49.704;9.908;2022-12-29T05:27:22;12.50;68.80
27671;DHT22;15077;49.704;9.908;2022-12-29T05:29:47;12.60;68.80
27671;DHT22;15077;49.704;9.908;2022-12-29T05:32:13;12.60;68.60
27671;DHT22;15077;49.704;9.908;2022-12-29T05:34:39;12.60;68.70
27671;DHT22;15077;49.704;9.908;2022-12-29T05:37:05;12.60;68.60
27671;DHT22;15077;49.704;9.908;2022-12-29T05:39:30;12.60;69.20
27671;DHT22;15077;49.704;9.908;2022-12-29T05:41:56;12.60;68.30
27671;DHT22;15077;49.704;9.908;2022-12-29T05:44:22;12.60;68.40
27671;DHT22;15077;49.704;9.908;2022-12-29T05:46:48;12.60;68.30
27671;DHT22;15077;49.704;9.908;2022-12-29T05:49:14;12.60;68.20
27671;DHT22;15077;49.704;9.908;2022-12-29T05:51:39;12.60;68.10
27671;DHT22;15077;49.704;9.908;2022-12-29T05:54:05;12.60;68.10
27671;DHT22;15077;49.704;9.908;2022-12-29T05:56:31;12.60;67.90
27671;DHT22;15077;49.704;9.908;2022-12-29T05:58:57;12.60;67.90
27671;DHT22;15077;49.704;9.908;2022-12-29T06:01:22;12.60;68.00
27671;DHT22;15077;49.704;9.908;2022-12-29T06:03:48;12.60;67.70
27671;DHT22;15077;49.704;9.908;2022-12-29T06:06:14;12.60;67.40
27671;DHT22;15077;49.704;9.908;2022-12-29T06:08:40;12.70;67.50
27671;DHT22;15077;49.704;9.908;2022-12-29T06:11:05;12.70;67.40
27671;DHT22;15077;49.704;9.908;2022-12-29T06:13:31;12.70;67.20
27671;DHT22;15077;49.704;9.908;2022-12-29T06:15:57;12.70;67.20
27671;DHT22;15077;49.704;9.908;2022-12-29T06:18:23;12.70;67.00
27671;DHT22;15077;49.704;9.908;2022-12-29T06:20:48;12.70;66.80
27671;DHT22;15077;49.704;9.908;2022-12-29T06:23:14;12.80;66.90
27671;DHT22;15077;49.704;9.908;2022-12-29T06:25:41;12.80;66.90
27671;DHT22;15077;49.704;9.908;2022-12-29T06:28:07;12.90;66.70
27671;DHT22;15077;49.704;9.908;2022-12-29T06:30:33;12.90;66.90
27671;DHT22;15077;49.704;9.908;2022-12-29T06:32:59;12.90;66.80
27671;DHT22;15077;49.704;9.908;2022-12-29T06:35:25;13.00;66.80
27671;DHT22;15077;49.704;9.908;2022-12-29T06:37:51;13.00;66.70
27671;DHT22;15077;49.704;9.908;2022-12-29T06:40:17;13.00;66.50
27671;DHT22;15077;49.704;9.908;2022-12-29T06:42:43;13.10;66.60
27671;DHT22;15077;49.704;9.908;2022-12-29T06:45:09;13.10;66.50
27671;DHT22;15077;49.704;9.908;2022-12-29T06:47:35;13.10;66.40
27671;DHT22;15077;49.704;9.908;2022-12-29T06:50:01;13.10;66.40
27671;DHT22;15077;49.704;9.908;2022-12-29T06:52:28;13.10;66.30
27671;DHT22;15077;49.704;9.908;2022-12-29T06:54:54;13.10;66.30
27671;DHT22;15077;49.704;9.908;2022-12-29T06:57:21;13.20;66.00
27671;DHT22;15077;49.704;9.908;2022-12-29T06:59:47;13.20;66.30
27671;DHT22;15077;49.704;9.908;2022-12-29T07:02:13;13.20;66.40
27671;DHT22;15077;49.704;9.908;2022-12-29T07:04:40;13.20;66.40
27671;DHT22;15077;49.704;9.908;2022-12-29T07:07:05;13.20;66.30
27671;DHT22;15077;49.704;9.908;2022-12-29T07:09:31;13.20;66.20
27671;DHT22;15077;49.704;9.908;2022-12-29T07:11:57;13.20;66.20
27671;DHT22;15077;49.704;9.908;2022-12-29T07:14:23;13.20;66.10
27671;DHT22;15077;49.704;9.908;2022-12-29T07:16:48;13.20;66.20
27671;DHT22;15077;49.704;9.908;2022-12-29T07:19:14;13.20;66.20
27671;DHT22;15077;49.704;9.908;2022-12-29T07:21:40;13.20;66.10
27671;DHT22;15077;49.704;9.908;2022-12-29T07:24:07;13.20;66.20
27671;DHT22;15077;49.704;9.908;2022-12-29T07:26:32;13.20;66.20
27671;DHT22;15077;49.704;9.908;2022-12-29T07:29:00;13.20;66.10
27671;DHT22;15077;49.704;9.908;2022-12-29T07:31:26;13.20;66.10
27671;DHT22;15077;49.704;9.908;2022-12-29T07:33:52;13.20;66.20
27671;DHT22;15077;49.704;9.908;2022-12-29T07:36:18;13.20;66.00
27671;DHT22;15077;49.704;9.908;2022-12-29T07:38:43;13.20;66.00
27671;DHT22;15077;49.704;9.908;2022-12-29T07:41:09;13.20;66.00
27671;DHT22;15077;49.704;9.908;2022-12-29T07:43:35;13.20;66.00
27671;DHT22;15077;49.704;9.908;2022-12-29T07:46:01;13.20;65.90
27671;DHT22;15077;49.704;9.908;2022-12-29T07:48:27;13.20;66.00
27671;DHT22;15077;49.704;9.908;2022-12-29T07:50:53;13.30;66.00
27671;DHT22;15077;49.704;9.908;2022-12-29T07:53:19;13.30;65.90
27671;DHT22;15077;49.704;9.908;2022-12-29T07:55:45;13.20;65.80
27671;DHT22;15077;49.704;9.908;2022-12-29T07:58:11;13.30;66.00
27671;DHT22;15077;49.704;9.908;2022-12-29T08:00:38;13.30;65.90
27671;DHT22;15077;49.704;9.908;2022-12-29T08:03:04;13.30;65.90
27671;DHT22;15077;49.704;9.908;2022-12-29T08:05:34;13.30;66.00
27671;DHT22;15077;49.704;9.908;2022-12-29T08:08:00;13.40;65.90
27671;DHT22;15077;49.704;9.908;2022-12-29T08:10:26;13.40;66.00
27671;DHT22;15077;49.704;9.908;2022-12-29T08:12:52;13.40;65.90
27671;DHT22;15077;49.704;9.908;2022-12-29T08:15:17;13.50;65.90
27671;DHT22;15077;49.704;9.908;2022-12-29T08:17:43;13.50;65.80
27671;DHT22;15077;49.704;9.908;2022-12-29T08:20:09;13.50;65.60
27671;DHT22;15077;49.704;9.908;2022-12-29T08:22:35;13.60;65.70
27671;DHT22;15077;49.704;9.908;2022-12-29T08:25:01;13.60;65.60
27671;DHT22;15077;49.704;9.908;2022-12-29T08:27:27;13.60;65.50
27671;DHT22;15077;49.704;9.908;2022-12-29T08:29:53;13.60;65.50
27671;DHT22;15077;49.704;9.908;2022-12-29T08:32:18;13.60;65.40
27671;DHT22;15077;49.704;9.908;2022-12-29T08:34:44;13.60;65.50
27671;DHT22;15077;49.704;9.908;2022-12-29T08:37:10;13.60;65.50
27671;DHT22;15077;49.704;9.908;2022-12-29T08:39:36;13.60;65.40
27671;DHT22;15077;49.704;9.908;2022-12-29T08:42:02;13.60;65.60
27671;DHT22;15077;49.704;9.908;2022-12-29T08:44:27;13.60;65.20
27671;DHT22;15077;49.704;9.908;2022-12-29T08:46:53;13.60;65.50
27671;DHT22;15077;49.704;9.908;2022-12-29T08:49:19;13.60;65.30
27671;DHT22;15077;49.704;9.908;2022-12-29T08:51:45;13.60;65.10
27671;DHT22;15077;49.704;9.908;2022-12-29T08:54:10;13.60;65.30
27671;DHT22;15077;49.704;9.908;2022-12-29T08:56:36;13.70;65.40
27671;DHT22;15077;49.704;9.908;2022-12-29T08:59:02;13.70;65.40
27671;DHT22;15077;49.704;9.908;2022-12-29T09:01:28;13.70;65.20
27671;DHT22;15077;49.704;9.908;2022-12-29T09:03:55;13.80;65.30
27671;DHT22;15077;49.704;9.908;2022-12-29T09:06:21;13.80;65.20
27671;DHT22;15077;49.704;9.908;2022-12-29T09:08:47;13.80;65.20
27671;DHT22;15077;49.704;9.908;2022-12-29T09:11:20;13.90;65.30
27671;DHT22;15077;49.704;9.908;2022-12-29T09:13:48;14.00;64.80
27671;DHT22;15077;49.704;9.908;2022-12-29T09:16:14;14.00;65.20
27671;DHT22;15077;49.704;9.908;2022-12-29T09:18:42;14.10;65.10
27671;DHT22;15077;49.704;9.908;2022-12-29T09:21:10;14.10;64.90
27671;DHT22;15077;49.704;9.908;2022-12-29T09:23:37;14.20;64.80
27671;DHT22;15077;49.704;9.908;2022-12-29T09:26:04;14.20;64.40
27671;DHT22;15077;49.704;9.908;2022-12-29T09:28:30;14.20;64.30
27671;DHT22;15077;49.704;9.908;2022-12-29T09:30:57;14.20;64.20
27671;DHT22;15077;49.704;9.908;2022-12-29T09:33:23;14.30;64.50
27671;DHT22;15077;49.704;9.908;2022-12-29T09:35:55;14.30;64.30
27671;DHT22;15077;49.704;9.908;2022-12-29T09:38:22;14.30;64.40
27671;DHT22;15077;49.704;9.908;2022-12-29T09:40:51;14.40;64.40
27671;DHT22;15077;49.704;9.908;2022-12-29T09:48:48;14.40;64.60
27671;DHT22;15077;49.704;9.908;2022-12-29T09:51:22;14.40;64.10
27671;DHT22;15077;49.704;9.908;2022-12-29T09:54:00;14.40;64.10
27671;DHT22;15077;49.704;9.908;2022-12-29T09:56:36;14.40;64.00
27671;DHT22;15077;49.704;9.908;2022-12-29T09:59:12;14.40;64.00
27671;DHT22;15077;49.704;9.908;2022-12-29T10:01:53;14.40;64.00
27671;DHT22;15077;49.704;9.908;2022-12-29T10:04:47;14.40;64.10
27671;DHT22;15077;49.704;9.908;2022-12-29T10:07:47;14.40;64.20
27671;DHT22;15077;49.704;9.908;2022-12-29T10:16:08;14.40;64.50
27671;DHT22;15077;49.704;9.908;2022-12-29T10:19:04;14.40;64.50
27671;DHT22;15077;49.704;9.908;2022-12-29T10:22:04;14.40;64.60
27671;DHT22;15077;49.704;9.908;2022-12-29T10:24:46;14.40;64.70
27671;DHT22;15077;49.704;9.908;2022-12-29T10:27:16;14.40;64.70
27671;DHT22;15077;49.704;9.908;2022-12-29T10:29:50;14.40;64.60
27671;DHT22;15077;49.704;9.908;2022-12-29T10:32:34;14.40;64.60
27671;DHT22;15077;49.704;9.908;2022-12-29T10:35:17;14.40;64.70
27671;DHT22;15077;49.704;9.908;2022-12-29T10:38:30;14.50;64.80
27671;DHT22;15077;49.704;9.908;2022-12-29T10:41:17;14.50;65.00
27671;DHT22;15077;49.704;9.908;2022-12-29T10:43:49;14.50;64.20
27671;DHT22;15077;49.704;9.908;2022-12-29T10:46:38;14.60;64.60
27671;DHT22;15077;49.704;9.908;2022-12-29T10:49:14;14.60;64.70
27671;DHT22;15077;49.704;9.908;2022-12-29T10:51:49;14.60;64.50
27671;DHT22;15077;49.704;9.908;2022-12-29T10:54:38;14.70;64.50
27671;DHT22;15077;49.704;9.908;2022-12-29T10:57:22;14.70;64.40
27671;DHT22;15077;49.704;9.908;2022-12-29T11:00:04;14.70;65.10
27671;DHT22;15077;49.704;9.908;2022-12-29T11:08:33;14.80;66.40
27671;DHT22;15077;49.704;9.908;2022-12-29T11:11:14;15.10;66.10
27671;DHT22;15077;49.704;9.908;2022-12-29T11:14:12;15.30;65.70
27671;DHT22;15077;49.704;9.908;2022-12-29T11:16:57;15.50;65.20
27671;DHT22;15077;49.704;9.908;2022-12-29T11:19:31;15.70;64.70
27671;DHT22;15077;49.704;9.908;2022-12-29T11:22:22;15.90;65.30
27671;DHT22;15077;49.704;9.908;2022-12-29T11:24:53;16.20;64.60
27671;DHT22;15077;49.704;9.908;2022-12-29T11:27:25;16.40;64.30
27671;DHT22;15077;49.704;9.908;2022-12-29T11:29:53;16.60;63.90
27671;DHT22;15077;49.704;9.908;2022-12-29T11:32:20;16.80;63.10
27671;DHT22;15077;49.704;9.908;2022-12-29T11:34:47;16.80;62.80
27671;DHT22;15077;49.704;9.908;2022-12-29T11:37:30;16.80;62.20
27671;DHT22;15077;49.704;9.908;2022-12-29T11:40:17;16.80;62.10
27671;DHT22;15077;49.704;9.908;2022-12-29T11:42:58;16.80;62.10
27671;DHT22;15077;49.704;9.908;2022-12-29T11:45:30;16.80;61.50
27671;DHT22;15077;49.704;9.908;2022-12-29T11:48:17;16.80;61.40
27671;DHT22;15077;49.704;9.908;2022-12-29T11:50:55;16.80;61.20
27671;DHT22;15077;49.704;9.908;2022-12-29T11:53:49;16.70;60.70
27671;DHT22;15077;49.704;9.908;2022-12-29T11:56:31;16.60;61.20
27671;DHT22;15077;49.704;9.908;2022-12-29T12:02:26;16.60;60.90
27671;DHT22;15077;49.704;9.908;2022-12-29T12:05:25;16.70;60.80
27671;DHT22;15077;49.704;9.908;2022-12-29T12:08:11;16.70;60.60
27671;DHT22;15077;49.704;9.908;2022-12-29T12:11:11;16.70;59.30
27671;DHT22;15077;49.704;9.908;2022-12-29T12:16:39;16.80;59.80
27671;DHT22;15077;49.704;9.908;2022-12-29T12:19:23;16.90;59.80
27671;DHT22;15077;49.704;9.908;2022-12-29T12:22:29;17.00;58.90
27671;DHT22;15077;49.704;9.908;2022-12-29T12:25:13;17.10;58.80
27671;DHT22;15077;49.704;9.908;2022-12-29T12:28:15;17.20;58.60
27671;DHT22;15077;49.704;9.908;2022-12-29T12:30:48;17.20;58.10
27671;DHT22;15077;49.704;9.908;2022-12-29T12:33:29;17.30;57.70
27671;DHT22;15077;49.704;9.908;2022-12-29T12:39:26;17.40;57.90
27671;DHT22;15077;49.704;9.908;2022-12-29T13:00:03;17.30;58.10
27671;DHT22;15077;49.704;9.908;2022-12-29T13:06:18;17.10;58.00
27671;DHT22;15077;49.704;9.908;2022-12-29T13:09:04;16.90;57.60
27671;DHT22;15077;49.704;9.908;2022-12-29T13:12:05;16.80;57.90
27671;DHT22;15077;49.704;9.908;2022-12-29T13:15:00;16.60;57.70
27671;DHT22;15077;49.704;9.908;2022-12-29T13:17:52;16.40;58.00
27671;DHT22;15077;49.704;9.908;2022-12-29T13:23:40;16.20;58.60
27671;DHT22;15077;49.704;9.908;2022-12-29T13:27:06;16.00;58.60
27671;DHT22;15077;49.704;9.908;2022-12-29T13:29:56;15.90;59.10
27671;DHT22;15077;49.704;9.908;2022-12-29T13:38:39;15.60;59.40
27671;DHT22;15077;49.704;9.908;2022-12-29T13:41:33;15.60;59.80
27671;DHT22;15077;49.704;9.908;2022-12-29T13:44:03;15.50;59.50
27671;DHT22;15077;49.704;9.908;2022-12-29T13:46:39;15.40;59.40
27671;DHT22;15077;49.704;9.908;2022-12-29T13:49:18;15.40;59.30
27671;DHT22;15077;49.704;9.908;2022-12-29T13:51:54;15.30;59.30
27671;DHT22;15077;49.704;9.908;2022-12-29T13:54:34;15.20;59.40
27671;DHT22;15077;49.704;9.908;2022-12-29T13:57:18;15.20;59.80
27671;DHT22;15077;49.704;9.908;2022-12-29T14:00:12;15.10;59.70
27671;DHT22;15077;49.704;9.908;2022-12-29T14:07:44;15.00;60.40
27671;DHT22;15077;49.704;9.908;2022-12-29T14:13:22;14.90;60.60
27671;DHT22;15077;49.704;9.908;2022-12-29T14:15:55;14.90;60.70
27671;DHT22;15077;49.704;9.908;2022-12-29T14:18:29;14.90;60.70
27671;DHT22;15077;49.704;9.908;2022-12-29T14:21:21;14.90;60.70
27671;DHT22;15077;49.704;9.908;2022-12-29T14:23:53;14.90;60.80
27671;DHT22;15077;49.704;9.908;2022-12-29T14:28:57;14.80;61.00
27671;DHT22;15077;49.704;9.908;2022-12-29T14:31:59;14.70;61.00
27671;DHT22;15077;49.704;9.908;2022-12-29T14:34:30;14.70;60.80
27671;DHT22;15077;49.704;9.908;2022-12-29T14:37:01;14.70;61.00
27671;DHT22;15077;49.704;9.908;2022-12-29T14:39:32;14.70;61.10
27671;DHT22;15077;49.704;9.908;2022-12-29T14:44:55;14.60;61.70
27671;DHT22;15077;49.704;9.908;2022-12-29T14:50:21;14.50;61.30
27671;DHT22;15077;49.704;9.908;2022-12-29T14:53:02;14.50;61.40
27671;DHT22;15077;49.704;9.908;2022-12-29T14:55:47;14.40;61.40
27671;DHT22;15077;49.704;9.908;2022-12-29T14:58:26;14.40;61.40
27671;DHT22;15077;49.704;9.908;2022-12-29T15:00:54;14.40;61.50
27671;DHT22;15077;49.704;9.908;2022-12-29T15:03:36;14.40;61.70
27671;DHT22;15077;49.704;9.908;2022-12-29T15:06:11;14.30;61.60
27671;DHT22;15077;49.704;9.908;2022-12-29T15:11:19;14.20;61.80
27671;DHT22;15077;49.704;9.908;2022-12-29T15:13:48;14.20;61.90
27671;DHT22;15077;49.704;9.908;2022-12-29T15:16:32;14.20;61.90
27671;DHT22;15077;49.704;9.908;2022-12-29T15:19:02;14.20;62.10
27671;DHT22;15077;49.704;9.908;2022-12-29T15:21:33;14.20;62.30
27671;DHT22;15077;49.704;9.908;2022-12-29T15:24:00;14.10;62.60
27671;DHT22;15077;49.704;9.908;2022-12-29T15:26:39;14.20;62.60
27671;DHT22;15077;49.704;9.908;2022-12-29T15:29:39;14.10;62.60
27671;DHT22;15077;49.704;9.908;2022-12-29T15:32:27;14.10;62.80
27671;DHT22;15077;49.704;9.908;2022-12-29T15:34:55;14.10;62.80
27671;DHT22;15077;49.704;9.908;2022-12-29T15:37:32;14.00;63.30
27671;DHT22;15077;49.704;9.908;2022-12-29T15:40:00;14.00;63.80
27671;DHT22;15077;49.704;9.908;2022-12-29T15:45:15;13.90;64.20
27671;DHT22;15077;49.704;9.908;2022-12-29T15:47:44;13.80;64.30
27671;DHT22;15077;49.704;9.908;2022-12-29T15:50:27;13.80;64.60
27671;DHT22;15077;49.704;9.908;2022-12-29T15:52:55;13.70;65.20
27671;DHT22;15077;49.704;9.908;2022-12-29T15:55:28;13.70;64.90
27671;DHT22;15077;49.704;9.908;2022-12-29T15:57:59;13.60;65.30
27671;DHT22;15077;49.704;9.908;2022-12-29T16:03:03;13.40;65.30
27671;DHT22;15077;49.704;9.908;2022-12-29T16:05:37;13.40;65.70
27671;DHT22;15077;49.704;9.908;2022-12-29T16:08:29;13.30;65.90
27671;DHT22;15077;49.704;9.908;2022-12-29T16:11:04;13.30;66.30
27671;DHT22;15077;49.704;9.908;2022-12-29T16:13:53;13.20;66.40
27671;DHT22;15077;49.704;9.908;2022-12-29T16:16:36;13.10;66.30
27671;DHT22;15077;49.704;9.908;2022-12-29T16:19:38;13.10;67.00
27671;DHT22;15077;49.704;9.908;2022-12-29T16:22:10;13.10;67.20
27671;DHT22;15077;49.704;9.908;2022-12-29T16:24:48;13.10;67.20
27671;DHT22;15077;49.704;9.908;2022-12-29T16:27:25;13.00;67.10
27671;DHT22;15077;49.704;9.908;2022-12-29T16:30:04;12.90;67.30
27671;DHT22;15077;49.704;9.908;2022-12-29T16:32:33;12.90;67.50
27671;DHT22;15077;49.704;9.908;2022-12-29T16:35:28;12.80;67.80
27671;DHT22;15077;49.704;9.908;2022-12-29T16:38:22;12.80;68.80
27671;DHT22;15077;49.704;9.908;2022-12-29T16:43:36;12.70;68.60
27671;DHT22;15077;49.704;9.908;2022-12-29T16:46:27;12.60;68.40
27671;DHT22;15077;49.704;9.908;2022-12-29T16:48:56;12.60;68.50
27671;DHT22;15077;49.704;9.908;2022-12-29T16:51:32;12.60;68.10
27671;DHT22;15077;49.704;9.908;2022-12-29T16:54:00;12.50;68.60
27671;DHT22;15077;49.704;9.908;2022-12-29T16:56:30;12.50;68.20
27671;DHT22;15077;49.704;9.908;2022-12-29T16:59:05;12.50;68.20
27671;DHT22;15077;49.704;9.908;2022-12-29T17:01:36;12.40;67.90
27671;DHT22;15077;49.704;9.908;2022-12-29T17:04:09;12.40;68.00
27671;DHT22;15077;49.704;9.908;2022-12-29T17:06:37;12.40;68.10
27671;DHT22;15077;49.704;9.908;2022-12-29T17:09:26;12.30;68.00
27671;DHT22;15077;49.704;9.908;2022-12-29T17:11:58;12.30;68.40
27671;DHT22;15077;49.704;9.908;2022-12-29T17:17:32;12.20;68.40
27671;DHT22;15077;49.704;9.908;2022-12-29T17:20:18;12.20;68.40
27671;DHT22;15077;49.704;9.908;2022-12-29T17:22:46;12.20;68.20
27671;DHT22;15077;49.704;9.908;2022-12-29T17:25:17;12.10;68.20
27671;DHT22;15077;49.704;9.908;2022-12-29T17:27:47;12.10;68.30
27671;DHT22;15077;49.704;9.908;2022-12-29T17:30:19;12.10;68.50
27671;DHT22;15077;49.704;9.908;2022-12-29T17:32:57;12.00;68.60
27671;DHT22;15077;49.704;9.908;2022-12-29T17:35:27;12.00;68.90
27671;DHT22;15077;49.704;9.908;2022-12-29T17:37:53;12.00;68.80
27671;DHT22;15077;49.704;9.908;2022-12-29T17:40:32;12.00;69.10
27671;DHT22;15077;49.704;9.908;2022-12-29T17:42:58;12.00;69.40
27671;DHT22;15077;49.704;9.908;2022-12-29T17:45:30;12.00;69.20
27671;DHT22;15077;49.704;9.908;2022-12-29T17:47:58;12.00;69.60
27671;DHT22;15077;49.704;9.908;2022-12-29T17:50:29;11.90;69.40
27671;DHT22;15077;49.704;9.908;2022-12-29T17:52:57;11.90;69.40
27671;DHT22;15077;49.704;9.908;2022-12-29T17:55:26;11.90;69.40
27671;DHT22;15077;49.704;9.908;2022-12-29T17:57:52;11.90;69.90
27671;DHT22;15077;49.704;9.908;2022-12-29T18:00:23;11.90;69.40
27671;DHT22;15077;49.704;9.908;2022-12-29T18:02:56;11.90;69.40